Terminal Aerodrome Forecast
Issued by NWS Charleston, WV

Current Version | Previous Version | Text Only | Print | Product List | Glossary Off
Versions: 1 2 3 4 5 6 7 8 9 10 11 12 13 14 15 16 17 18 19 20 21 22

000
FTUS41 KRLX 300533
TAFCRW
TAF
KCRW 300533Z 3006/3106 VRB03KT 5SM BR BKN035
      TEMPO 3006/3009 3SM BR BKN001
     FM301000 VRB03KT 3SM BR SCT001 BKN035
     FM301300 29004KT 6SM HZ BKN035
     FM301400 31004KT P6SM SCT030
     FM302100 30008KT P6SM FEW050=

USA.gov is the U.S. government's official web portal to all federal, state and local government web resources and services.